Jamaica Estates, New York
Current Conditions -  °F | °C
As of 11:51 PM on Saturday 25 Oct 2014 (Local Time) from KJFK Reporting Station
Scattered Clouds Scattered Clouds  
Wind Chill: 60°   Ceiling: Unl
Heat Index: 60°   Visibility: 10mi
Dew Point: 47°   Wind: 15mph
Humidity: 62%   Direction: 240°WSW
Pressure: 29.58"   Gusts: NA
Location:  40.7153°N, 73.7933°W
Report Text: KJFK 260351Z 24013KT 10SM SCT070 16/08 A2958 RMK AO2 SLP017 T01560083
Loading
Personal Weather Stations






























Interactive Weather Map
Tropical Storm Tracking
New forecast layout! Learn more

10-Day Weather Forecast

Advertisements
Track Severe Weather on mobile